Movado Group Inc (MOV) Latest Bloomsberg Price


Mffais Ranking #1960 Overall / #15 Industry
Industry: Apparel Footwear And Acc Design

Number of Companies: 102 (Ranking #1631 Overall/#20 Industry)
Inflow: $ 9,169 (K) (Ranking #2031 Overall/#20 Industry)
Outflow: $ -23,420 (K)
Mffais Flow: $ -14,250 (K) (Ranking #1960 Overall/#15 Industry)


Receive a FREE weekly executive review of stocks moving into the top 10, taking the top industy spot or moving up within their industry. Sent directly to your Inbox every Saturday. Sign up today and get last week's review immediately sent to you.

We value and respect your privacy. Please read our Terms and Conditions which states our firm commitment to your privacy. Your email address will not be shared with a third party, nor will it be sold or used for purposes other than subscription for the weekly review.

Owner CPOR Shares Action Qty Chg Invested (K) Total Current Value (K)
Perkins Investment Management Llc 2016-09-30 521,247 Added More 134,344 $ 2,973 $ 11,535
Ariel Investments Llc 2016-09-30 165,700 Added More 56,600 $ 1,252 $ 3,666
Foundry Partners Llc 2016-09-30 159,523 Added More 55,431 $ 1,226 $ 3,530
Alphaone Investment Services Llc 2016-09-30 127,597 Added More 36,097 $ 798 $ 2,823
Emerald Acquisition Ltd 2016-09-30 47,993 Added More 27,367 $ 605 $ 1,062
Landscape Capital Management L L C 2016-09-30 24,826 New Holding 24,826 $ 549 $ 549
Highbridge Capital Management Llc 2016-09-30 16,399 New Holding 16,399 $ 362 $ 362
Contrarius Investment Management Ltd 2016-09-30 175,609 Added More 12,458 $ 275 $ 3,886
Legal General Group Plc 2016-09-30 13,412 Added More 10,900 $ 241 $ 296
Hudson Bay Capital Management Lp 2016-09-30 10,000 New Holding 10,000 $ 221 $ 221
Menta Capital Llc 2016-09-30 25,609 Added More 8,630 $ 190 $ 566
Qs Investors Llc 2016-09-30 5,721 Added More 5,463 $ 120 $ 126
Systematic Financial Management Lp 2016-09-30 80,166 Added More 4,870 $ 107 $ 1,774
Sg Americas Securities Llc 2016-09-30 11,275 Added More 4,154 $ 91 $ 249
Lucus Advisors Llc 2016-09-30 18,461 Added More 2,640 $ 58 $ 408
Teachers Advisors Inc 2016-09-30 31,459 Added More 1,412 $ 31 $ 696
Rhumbline Advisers 2016-09-30 24,582 Added More 1,095 $ 24 $ 544
Nisa Investment Advisors Llc 2016-09-30 16,700 Added More 1,000 $ 22 $ 369
California State Teachers Retirement System 2016-09-30 32,566 Added More 300 $ 6 $ 720
Smith Asset Management Group Lp 2016-09-30 12,490 Added More 250 $ 5 $ 276
Denali Advisors Llc 2016-09-30 100 Added More 45 $ 0 $ 2
Oshaughnessy Asset Management Llc 2016-09-30 3,045 Added More 32 $ 0 $ 67
Pinebridge Investments L P 2016-09-30 1,949 Added More 23 $ 0 $ 43
Us Bancorp De 2016-09-30 232 Added More 23 $ 0 $ 5
Sei Investments Co 2016-09-30 10 Added More 7 $ 0 $ 0
Creative Planning 2016-09-30 34 No Change 0 $ 0 $ 0
Kbc Group Nv 2016-09-30 43,176 No Change 0 $ 0 $ 955
New York State Common Retirement Fund 2016-09-30 15,800 No Change 0 $ 0 $ 349
Teachers Retirement System Of The State Of Kentucky 2016-09-30 4,700 No Change 0 $ 0 $ 104
Fisher Asset Management Llc 2016-09-30 32,980 No Change 0 $ 0 $ 729
First Midwest Bank Trust Division 2016-09-30 15,066 No Change 0 $ 0 $ 333
Sevenbridge Financial Group Llc 2016-09-30 145 No Change 0 $ 0 $ 3
Ifp Advisors Inc 2016-09-30 7 No Change 0 $ 0 $ 0
Integrated Wealth Management 2016-09-30 31 No Change 0 $ 0 $ 0
Van Hulzen Asset Management Llc 2016-09-30 7,500 No Change 0 $ 0 $ 165
Dreman Value Management L L C 2016-09-30 82 No Change 0 $ 0 $ 1
Gabelli Funds Llc 2016-09-30 80,000 No Change 0 $ 0 $ 1,770
Thomas White International Ltd 2016-09-30 100 No Change 0 $ 0 $ 2
State Of Tennessee Treasury Department 2016-09-30 13,006 No Change 0 $ 0 $ 287
Swiss National Bank 2016-09-30 27,000 No Change 0 $ 0 $ 597
Rbf Capital Llc 2016-09-30 10,000 No Change 0 $ 0 $ 221
Sol Capital Management Co 2016-09-30 10,000 No Change 0 $ 0 $ 221
Zurcher Kantonalbank Zurich Cantonalbank 2016-09-30 366 No Change 0 $ 0 $ 8
Ls Investment Advisors Llc 2016-09-30 619 No Change 0 $ 0 $ 13
Public Sector Pension Investment Board 2016-09-30 11,431 No Change 0 $ 0 $ 252
Teton Advisors Inc 2016-09-30 15,000 No Change 0 $ 0 $ 331
Gamco Investors Inc Et Al 2016-09-30 83,400 No Change 0 $ 0 $ 1,845
Ladenburg Thalmann Financial Services Inc 2016-09-30 69 Sold Some -16 $ -0 $ 1
Msi Financial Services Inc 2016-09-30 0 Sold All -30 $ -0 $ 0
Quadrant Capital Group Llc 2016-09-30 0 Sold All -41 $ -0 $ 0
Mason Street Advisors Llc 2016-09-30 3,155 Sold Some -44 $ -0 $ 69
Pnc Financial Services Group Inc 2016-09-30 4,730 Sold Some -113 $ -2 $ 104
Somerset Trust Co 2016-09-30 10,957 Sold Some -157 $ -3 $ 242
American International Group Inc 2016-09-30 11,432 Sold Some -183 $ -4 $ 252
Group One Trading L P 2016-09-30 300 Sold Some -200 $ -4 $ 6
Bridgeway Capital Management Inc 2016-09-30 40,600 Sold Some -200 $ -4 $ 898
Envestnet Asset Management Inc 2016-09-30 2,221 Sold Some -211 $ -4 $ 49
Horizon Kinetics Llc 2016-09-30 107,257 Sold Some -268 $ -5 $ 2,373
Guggenheim Capital Llc 2016-09-30 26,295 Sold Some -283 $ -6 $ 581
Strs Ohio 2016-09-30 30,400 Sold Some -300 $ -6 $ 672
Acrospire Investment Management Llc 2016-09-30 418 Sold Some -381 $ -8 $ 9
Comerica Bank 2016-09-30 15,522 Sold Some -741 $ -16 $ 343
Blackrock Investment Management Llc 2016-09-30 74,759 Sold Some -776 $ -17 $ 1,654
Texas Permanent School Fund 2016-09-30 11,676 Sold Some -838 $ -18 $ 258
New York State Teachers Retirement System 2016-09-30 57,528 Sold Some -1,000 $ -22 $ 1,273
Dimensional Fund Advisors Lp 2016-09-30 1,429,196 Sold Some -1,260 $ -27 $ 31,628
Pacad Investment Ltd 2016-09-30 0 Sold All -1,400 $ -30 $ 0
Tower Research Capital Llc Trc 2016-09-30 0 Sold All -1,803 $ -39 $ 0
Blackrock Inc 2016-09-30 4,339 Sold Some -2,068 $ -45 $ 96
Teacher Retirement System Of Texas 2016-09-30 0 Sold All -2,288 $ -50 $ 0
Meeder Asset Management Inc 2016-09-30 0 Sold All -2,673 $ -59 $ 0
Parametric Portfolio Associates Llc 2016-09-30 65,854 Sold Some -2,821 $ -62 $ 1,457
Cutler Group Lp 2016-09-30 6,420 Sold Some -3,214 $ -71 $ 142
Northern Trust Corp 2016-09-30 300,754 Sold Some -3,424 $ -75 $ 6,655
Fiera Capital Corp 2016-09-30 86,700 Sold Some -3,500 $ -77 $ 1,918
Deere Co 2016-09-30 13,349 Sold Some -5,205 $ -115 $ 295
Grantham Mayo Van Otterloo Co Llc 2016-09-30 11,590 Sold Some -5,310 $ -117 $ 256
Springbok Capital Management Llc 2016-09-30 9,000 Sold Some -6,200 $ -137 $ 199
Amp Capital Investors Ltd 2016-09-30 0 Sold All -9,230 $ -204 $ 0
Boothbay Fund Management Llc 2016-09-30 0 Sold All -11,217 $ -248 $ 0
Princeton Alpha Management Lp 2016-09-30 0 Sold All -12,229 $ -270 $ 0
Brandywine Global Investment Management Llc 2016-09-30 0 Sold All -12,400 $ -274 $ 0
Cacti Asset Management Llc 2016-09-30 54,375 Sold Some -13,500 $ -298 $ 1,203
Hennessy Advisors Inc 2016-09-30 138,500 Sold Some -15,000 $ -331 $ 3,065
Tudor Investment Corp Et Al 2016-09-30 20,654 Sold Some -15,167 $ -335 $ 457
Lombardia Capital Partners Llc 2016-09-30 19,589 Sold Some -16,017 $ -354 $ 433
Dupont Capital Management Corp 2016-09-30 0 Sold All -17,802 $ -393 $ 0
Spark Investment Management Llc 2016-09-30 9,900 Sold Some -19,000 $ -420 $ 219
Alambic Investment Management L P 2016-09-30 68,087 Sold Some -21,150 $ -468 $ 1,506
Algert Global Llc 2016-09-30 0 Sold All -21,886 $ -484 $ 0
Clinton Group Inc 2016-09-30 0 Sold All -23,529 $ -520 $ 0
Cim Investment Mangement Inc 2016-09-30 0 Sold All -23,645 $ -523 $ 0
Walleye Trading Llc 2016-09-30 0 Sold All -25,651 $ -567 $ 0
Cornerstone Capital Management Holdings Llc 2016-09-30 3,800 Sold Some -44,348 $ -981 $ 84
Iat Reinsurance Co Ltd 2016-09-30 0 Sold All -47,000 $ -1,040 $ 0
Nationwide Fund Advisors 2016-09-30 15,187 Sold Some -48,902 $ -1,082 $ 336
Convergence Investment Partners Llc 2016-09-30 0 Sold All -50,800 $ -1,124 $ 0
Panagora Asset Management Inc 2016-09-30 15,295 Sold Some -54,430 $ -1,204 $ 338
A R T Advisors Llc 2016-09-30 0 Sold All -54,825 $ -1,213 $ 0
Keeley Asset Management Corp 2016-09-30 0 Sold All -76,600 $ -1,695 $ 0
Gotham Asset Management Llc 2016-09-30 0 Sold All -79,969 $ -1,769 $ 0
Royce Associates Lp 2016-09-30 1,174,376 Sold Some -297,064 $ -6,574 $ 25,988